createdAt,value
2022-09-30T00:02:14.903Z,5.50
2022-09-30T00:04:49.932Z,5.40
2022-09-30T00:07:24.874Z,5.90
2022-09-30T00:09:59.854Z,5.90
2022-09-30T00:12:35.034Z,6.83
2022-09-30T00:15:11.018Z,6.03
2022-09-30T00:17:45.920Z,5.93
2022-09-30T00:20:21.066Z,5.70
2022-09-30T00:22:55.943Z,5.57
2022-09-30T00:25:30.867Z,5.70
2022-09-30T00:28:07.926Z,6.00
2022-09-30T00:30:43.691Z,5.43
2022-09-30T00:33:18.561Z,5.10
2022-09-30T00:35:53.437Z,6.17
2022-09-30T00:38:28.516Z,6.20
2022-09-30T00:41:04.215Z,5.60
2022-09-30T00:43:51.842Z,6.43
2022-09-30T00:46:40.946Z,5.37
2022-09-30T00:49:24.689Z,5.67
2022-09-30T00:52:00.511Z,5.90
2022-09-30T00:54:36.497Z,5.90
2022-09-30T00:57:11.814Z,7.00
2022-09-30T00:59:50.512Z,6.37
2022-09-30T01:02:25.495Z,5.90
2022-09-30T01:05:00.566Z,6.43
2022-09-30T01:07:36.592Z,6.60
2022-09-30T01:10:11.435Z,6.43
2022-09-30T01:12:46.404Z,6.17
2022-09-30T01:15:30.974Z,6.00
2022-09-30T01:18:26.475Z,6.40
2022-09-30T01:21:55.444Z,7.43
2022-09-30T01:24:42.528Z,8.00
2022-09-30T01:27:47.147Z,6.97
2022-09-30T01:31:06.254Z,7.20
2022-09-30T01:34:09.921Z,7.33
2022-09-30T01:37:08.414Z,6.10
2022-09-30T01:40:07.791Z,6.77
2022-09-30T01:43:03.517Z,6.67
2022-09-30T01:45:42.868Z,6.07
2022-09-30T01:48:46.835Z,6.00
2022-09-30T01:51:55.801Z,7.23
2022-09-30T01:55:03.434Z,5.53
2022-09-30T01:57:44.625Z,5.63
2022-09-30T02:00:21.158Z,6.30
2022-09-30T02:03:01.645Z,6.40
2022-09-30T02:06:11.801Z,6.17
2022-09-30T02:09:07.401Z,6.47
2022-09-30T02:11:43.179Z,5.57
2022-09-30T02:14:40.944Z,6.23
2022-09-30T02:17:34.051Z,6.13
2022-09-30T02:20:37.400Z,5.37
2022-09-30T02:23:28.419Z,5.20
2022-09-30T02:26:10.539Z,5.07
2022-09-30T02:28:54.159Z,5.80
2022-09-30T02:31:32.904Z,5.53
2022-09-30T02:34:32.849Z,5.20
2022-09-30T02:37:16.112Z,5.53
2022-09-30T02:40:27.141Z,4.90
2022-09-30T02:43:04.221Z,6.00
2022-09-30T02:46:06.438Z,5.73
2022-09-30T02:49:11.562Z,6.17
2022-09-30T02:51:57.056Z,5.83
2022-09-30T02:54:56.849Z,6.13
2022-09-30T02:57:56.503Z,5.27
2022-09-30T03:00:31.760Z,6.17
2022-09-30T03:03:21.797Z,6.17
2022-09-30T03:05:56.834Z,5.50
2022-09-30T03:08:31.805Z,5.73
2022-09-30T03:11:08.080Z,5.87
2022-09-30T03:14:13.403Z,6.50
2022-09-30T03:17:06.719Z,6.00
2022-09-30T03:19:42.318Z,5.77
2022-09-30T03:22:36.087Z,6.13
2022-09-30T03:25:41.130Z,5.47
2022-09-30T03:28:26.832Z,6.20
2022-09-30T03:31:25.171Z,5.47
2022-09-30T03:34:17.968Z,6.00
2022-09-30T03:37:15.504Z,4.70
2022-09-30T03:40:28.042Z,6.20
2022-09-30T03:43:20.522Z,5.43
2022-09-30T03:46:19.006Z,5.80
2022-09-30T03:48:59.123Z,5.97
2022-09-30T03:51:37.933Z,7.20
2022-09-30T03:54:14.468Z,5.40
2022-09-30T03:56:49.431Z,6.87
2022-09-30T03:59:30.576Z,6.03
2022-09-30T04:02:06.956Z,6.67
2022-09-30T04:04:42.718Z,5.60
2022-09-30T04:07:18.059Z,6.30
2022-09-30T04:09:53.003Z,5.97
2022-09-30T04:12:27.929Z,6.93
2022-09-30T04:15:02.903Z,6.03
2022-09-30T04:17:37.893Z,6.00
2022-09-30T04:20:12.899Z,5.40
2022-09-30T04:22:47.850Z,5.60
2022-09-30T04:25:22.778Z,6.13
2022-09-30T04:27:57.782Z,6.43
2022-09-30T04:30:33.664Z,6.47
2022-09-30T04:33:08.911Z,6.00
2022-09-30T04:35:43.842Z,5.70
2022-09-30T04:38:19.253Z,5.43
2022-09-30T04:40:55.829Z,7.57
2022-09-30T04:43:31.041Z,6.20
2022-09-30T04:46:06.315Z,6.83
2022-09-30T04:48:45.838Z,5.40
2022-09-30T04:51:21.780Z,6.70
2022-09-30T04:53:56.754Z,6.60
2022-09-30T04:56:32.985Z,6.60
2022-09-30T04:59:08.185Z,7.27
2022-09-30T05:01:44.633Z,6.83
2022-09-30T05:04:19.692Z,7.17
2022-09-30T05:06:54.591Z,7.70
2022-09-30T05:09:29.824Z,7.27
2022-09-30T05:12:04.894Z,6.63
2022-09-30T05:14:39.819Z,7.13
2022-09-30T05:17:14.718Z,6.57
2022-09-30T05:19:49.584Z,7.30
2022-09-30T05:22:25.140Z,7.33
2022-09-30T05:25:00.084Z,6.33
2022-09-30T05:27:35.229Z,6.90
2022-09-30T05:30:10.835Z,6.07
2022-09-30T05:32:46.332Z,7.60
2022-09-30T05:35:21.264Z,7.20
2022-09-30T05:37:56.163Z,6.60
2022-09-30T05:40:32.120Z,7.40
2022-09-30T05:43:07.715Z,6.80
2022-09-30T05:45:42.611Z,7.93
2022-09-30T05:48:17.494Z,6.60
2022-09-30T05:50:57.520Z,6.50
2022-09-30T05:53:34.612Z,6.73
2022-09-30T05:56:11.073Z,7.40
2022-09-30T05:58:47.179Z,6.40
2022-09-30T06:01:22.159Z,6.37
2022-09-30T06:03:57.029Z,6.57
2022-09-30T06:06:31.990Z,6.67
2022-09-30T06:09:06.963Z,6.30
2022-09-30T06:11:42.671Z,6.50
2022-09-30T06:14:19.902Z,6.20
2022-09-30T06:16:54.888Z,6.43
2022-09-30T06:19:30.396Z,6.63
2022-09-30T06:22:05.391Z,6.90
2022-09-30T06:24:41.658Z,6.93
2022-09-30T06:27:16.572Z,6.63
2022-09-30T06:29:51.799Z,6.60
2022-09-30T06:32:26.852Z,5.50
2022-09-30T06:35:03.724Z,6.90
2022-09-30T06:37:38.817Z,6.83
2022-09-30T06:40:13.763Z,7.07
2022-09-30T06:42:49.893Z,7.20
2022-09-30T06:45:32.231Z,7.60
2022-09-30T06:48:10.986Z,8.33
2022-09-30T06:50:58.605Z,8.43
2022-09-30T06:53:40.186Z,9.37
2022-09-30T06:56:16.153Z,8.93
2022-09-30T06:58:51.727Z,11.13
2022-09-30T07:01:29.010Z,10.83
2022-09-30T07:04:09.400Z,11.27
2022-09-30T07:06:45.010Z,11.90
2022-09-30T07:09:20.110Z,10.60
2022-09-30T07:11:55.063Z,12.63
2022-09-30T07:14:30.231Z,14.17
2022-09-30T07:17:06.698Z,12.57
2022-09-30T07:19:41.619Z,12.40
2022-09-30T07:22:30.102Z,14.00
2022-09-30T07:25:05.495Z,15.30
2022-09-30T07:27:40.495Z,15.03
2022-09-30T07:30:23.969Z,15.70
2022-09-30T07:33:00.959Z,14.40
2022-09-30T07:35:35.894Z,16.33
2022-09-30T07:38:10.873Z,16.40
2022-09-30T07:41:14.788Z,14.87
2022-09-30T07:43:50.834Z,14.73
2022-09-30T07:46:32.610Z,15.73
2022-09-30T07:49:13.538Z,16.03
2022-09-30T07:51:48.516Z,17.40
2022-09-30T07:54:28.091Z,17.53
2022-09-30T07:57:10.056Z,17.47
2022-09-30T07:59:45.375Z,17.73
2022-09-30T08:02:20.380Z,18.30
2022-09-30T08:04:55.318Z,16.90
2022-09-30T08:07:30.324Z,16.70
2022-09-30T08:10:06.075Z,17.07
2022-09-30T08:12:40.994Z,16.43
2022-09-30T08:15:16.164Z,16.20
2022-09-30T08:17:51.146Z,16.80
2022-09-30T08:20:26.265Z,14.70
2022-09-30T08:23:01.237Z,17.17
2022-09-30T08:25:36.261Z,16.00
2022-09-30T08:28:12.216Z,14.97
2022-09-30T08:30:47.111Z,16.80
2022-09-30T08:33:22.085Z,14.87
2022-09-30T08:35:56.981Z,15.50
2022-09-30T08:38:32.028Z,15.17
2022-09-30T08:41:32.723Z,15.63
2022-09-30T08:44:45.504Z,13.77
2022-09-30T08:47:47.990Z,13.80
2022-09-30T08:51:20.717Z,13.90
2022-09-30T08:53:57.958Z,12.03
2022-09-30T08:56:34.376Z,11.87
2022-09-30T08:59:24.746Z,11.70
2022-09-30T09:02:29.008Z,13.10
2022-09-30T09:05:06.961Z,13.17
2022-09-30T09:08:06.455Z,12.57
2022-09-30T09:10:44.794Z,13.60
2022-09-30T09:13:52.083Z,13.43
2022-09-30T09:16:58.585Z,14.57
2022-09-30T09:20:13.728Z,12.73
2022-09-30T09:22:50.990Z,14.87
2022-09-30T09:25:34.425Z,14.70
2022-09-30T09:28:35.459Z,14.13
2022-09-30T09:31:17.575Z,13.43
2022-09-30T09:33:53.604Z,14.40
2022-09-30T09:36:55.986Z,15.23
2022-09-30T09:40:14.373Z,15.90
2022-09-30T09:43:05.309Z,15.13
2022-09-30T09:46:02.157Z,15.23
2022-09-30T09:48:37.240Z,14.13
2022-09-30T09:51:33.920Z,13.00
2022-09-30T09:54:12.406Z,13.23
2022-09-30T09:56:47.279Z,13.90
2022-09-30T09:59:22.311Z,13.73
2022-09-30T10:01:57.609Z,12.77
2022-09-30T10:04:33.146Z,13.20
2022-09-30T10:07:15.201Z,11.17
2022-09-30T10:10:08.948Z,10.10
2022-09-30T10:12:46.039Z,6.83
2022-09-30T10:15:24.346Z,5.93
2022-09-30T10:18:00.824Z,4.70
2022-09-30T10:20:37.525Z,5.90
2022-09-30T10:23:33.967Z,4.50
2022-09-30T10:26:15.218Z,4.87
2022-09-30T10:29:00.074Z,5.07
2022-09-30T10:31:42.322Z,5.30
2022-09-30T10:34:20.215Z,6.50
2022-09-30T10:36:57.342Z,5.37
2022-09-30T10:39:42.460Z,6.57
2022-09-30T10:42:26.860Z,6.03
2022-09-30T10:45:10.008Z,5.60
2022-09-30T10:47:49.736Z,5.37
2022-09-30T10:50:27.712Z,5.27
2022-09-30T10:53:20.856Z,4.83
2022-09-30T10:55:57.376Z,5.67
2022-09-30T11:01:43.871Z,4.13
2022-09-30T11:04:37.612Z,4.17
2022-09-30T11:07:36.994Z,3.70
2022-09-30T11:10:54.095Z,3.40
2022-09-30T11:13:40.983Z,3.20
2022-09-30T11:16:46.664Z,2.30
2022-09-30T11:19:31.424Z,3.03
2022-09-30T11:22:40.031Z,2.00
2022-09-30T11:25:22.441Z,1.53
2022-09-30T11:28:35.253Z,1.80
2022-09-30T11:31:53.607Z,2.00
2022-09-30T11:35:01.619Z,2.20
2022-09-30T11:38:10.935Z,2.10
2022-09-30T11:41:19.306Z,3.03
2022-09-30T11:44:12.383Z,2.57
2022-09-30T11:46:47.237Z,2.47
2022-09-30T11:49:39.909Z,4.23
2022-09-30T11:53:05.375Z,3.43
2022-09-30T11:56:00.528Z,4.57
2022-09-30T11:58:51.940Z,3.80
2022-09-30T12:01:38.041Z,3.50
2022-09-30T12:04:20.391Z,3.30
2022-09-30T12:07:10.331Z,1.50
2022-09-30T12:09:58.015Z,2.63
2022-09-30T12:12:33.116Z,2.70
2022-09-30T12:15:15.672Z,3.07
2022-09-30T12:18:04.018Z,2.40
2022-09-30T12:20:59.582Z,2.30
2022-09-30T12:23:43.575Z,3.60
2022-09-30T12:26:18.780Z,3.13
2022-09-30T12:29:46.524Z,2.80
2022-09-30T12:33:33.614Z,3.37
2022-09-30T12:36:20.708Z,2.93
2022-09-30T12:40:02.119Z,2.10
2022-09-30T12:43:30.280Z,2.10
2022-09-30T12:46:39.125Z,2.00
2022-09-30T12:49:21.537Z,1.90
2022-09-30T12:52:03.556Z,1.87
2022-09-30T12:54:53.389Z,2.73
2022-09-30T12:57:36.988Z,1.40
2022-09-30T13:00:17.703Z,1.60
2022-09-30T13:03:03.132Z,1.33
2022-09-30T13:05:47.415Z,1.77
2022-09-30T13:08:32.479Z,1.30
2022-09-30T13:11:38.411Z,1.47
2022-09-30T13:14:30.468Z,1.20
2022-09-30T13:17:08.691Z,1.30
2022-09-30T13:19:52.572Z,1.10
2022-09-30T13:22:30.252Z,1.40
2022-09-30T13:25:13.741Z,1.67
2022-09-30T13:28:14.494Z,1.70
2022-09-30T13:30:49.502Z,1.30
2022-09-30T13:33:40.829Z,1.20
2022-09-30T13:36:28.167Z,1.30
2022-09-30T13:39:49.147Z,1.13
2022-09-30T13:42:30.069Z,1.43
2022-09-30T13:45:31.886Z,1.20
2022-09-30T13:48:20.490Z,1.30
2022-09-30T13:51:00.008Z,1.37
2022-09-30T13:53:52.950Z,2.03
2022-09-30T13:56:36.421Z,1.10
2022-09-30T13:59:48.865Z,1.37
2022-09-30T14:02:54.278Z,1.60
2022-09-30T14:06:04.524Z,1.60
2022-09-30T14:09:38.717Z,1.30
2022-09-30T14:13:16.916Z,1.70
2022-09-30T14:16:34.314Z,1.73
2022-09-30T14:19:39.380Z,1.70
2022-09-30T14:22:15.651Z,2.17
2022-09-30T14:24:50.815Z,2.27
2022-09-30T14:27:53.692Z,2.33
2022-09-30T14:30:34.703Z,1.37
2022-09-30T14:33:24.475Z,1.40
2022-09-30T14:36:11.869Z,1.77
2022-09-30T14:38:53.306Z,1.40
2022-09-30T14:41:29.775Z,1.50
2022-09-30T14:44:07.825Z,1.37
2022-09-30T14:46:48.331Z,1.33
2022-09-30T14:49:34.270Z,1.30
2022-09-30T14:52:35.423Z,1.00
2022-09-30T14:55:30.309Z,1.07
2022-09-30T14:58:22.202Z,1.20
2022-09-30T15:01:10.931Z,1.50
2022-09-30T15:03:57.636Z,1.10
2022-09-30T15:06:37.404Z,1.10
2022-09-30T15:09:34.567Z,1.20
2022-09-30T15:12:22.740Z,1.37
2022-09-30T15:15:00.771Z,1.20
2022-09-30T15:17:37.709Z,0.80
2022-09-30T15:20:31.490Z,1.00
2022-09-30T15:23:17.044Z,1.00
2022-09-30T15:25:53.175Z,0.90
2022-09-30T15:28:28.304Z,1.33
2022-09-30T15:31:05.130Z,1.10
2022-09-30T15:33:40.112Z,1.10
2022-09-30T15:36:18.904Z,1.60
2022-09-30T15:38:53.920Z,1.63
2022-09-30T15:41:28.891Z,2.20
2022-09-30T15:44:04.246Z,1.80
2022-09-30T15:46:40.564Z,1.83
2022-09-30T15:49:52.902Z,1.60
2022-09-30T15:52:39.558Z,1.40
2022-09-30T15:55:44.298Z,1.60
2022-09-30T15:58:37.022Z,1.70
2022-09-30T16:01:14.720Z,1.33
2022-09-30T16:03:58.127Z,1.90
2022-09-30T16:06:41.055Z,1.40
2022-09-30T16:09:31.311Z,1.50
2022-09-30T16:12:14.961Z,1.83
2022-09-30T16:15:07.268Z,2.50
2022-09-30T16:17:50.035Z,2.30
2022-09-30T16:20:25.685Z,2.63
2022-09-30T16:23:02.468Z,1.70
2022-09-30T16:25:37.412Z,2.10
2022-09-30T16:28:14.950Z,1.93
2022-09-30T16:30:54.181Z,2.43
2022-09-30T16:33:29.093Z,1.53
2022-09-30T16:36:04.876Z,2.37
2022-09-30T16:38:39.797Z,2.10
2022-09-30T16:41:14.677Z,1.83
2022-09-30T16:43:49.649Z,1.70
2022-09-30T16:46:24.545Z,2.10
2022-09-30T16:49:00.048Z,2.40
2022-09-30T16:51:35.033Z,2.10
2022-09-30T16:54:11.591Z,1.90
2022-09-30T16:56:46.544Z,1.90
2022-09-30T16:59:21.516Z,2.20
2022-09-30T17:01:59.696Z,2.83
2022-09-30T17:04:38.554Z,2.70
2022-09-30T17:07:14.453Z,2.00
2022-09-30T17:09:49.652Z,2.23
2022-09-30T17:12:26.880Z,2.50
2022-09-30T17:15:01.852Z,3.43
2022-09-30T17:17:36.736Z,3.10
2022-09-30T17:20:12.690Z,3.90
2022-09-30T17:22:48.509Z,3.10
2022-09-30T17:25:23.845Z,3.20
2022-09-30T17:27:59.134Z,5.03
2022-09-30T17:30:34.107Z,4.60
2022-09-30T17:33:10.160Z,3.40
2022-09-30T17:35:45.131Z,3.47
2022-09-30T17:38:19.983Z,4.60
2022-09-30T17:41:13.365Z,3.53
2022-09-30T17:43:48.589Z,3.53
2022-09-30T17:46:25.636Z,3.90
2022-09-30T17:49:00.482Z,4.10
2022-09-30T17:51:37.754Z,3.20
2022-09-30T17:54:12.911Z,4.17
2022-09-30T17:56:48.011Z,4.07
2022-09-30T17:59:26.014Z,6.17
2022-09-30T18:02:01.031Z,4.90
2022-09-30T18:04:37.627Z,4.10
2022-09-30T18:07:13.683Z,3.73
2022-09-30T18:09:48.828Z,3.97
2022-09-30T18:12:23.780Z,4.37
2022-09-30T18:14:59.548Z,3.83
2022-09-30T18:17:34.421Z,4.20
2022-09-30T18:20:10.923Z,3.70
2022-09-30T18:22:45.859Z,3.70
2022-09-30T18:25:20.922Z,3.70
2022-09-30T18:27:58.770Z,3.70
2022-09-30T18:30:33.766Z,4.20
2022-09-30T18:33:09.438Z,4.63
2022-09-30T18:35:44.398Z,5.93
2022-09-30T18:38:19.596Z,7.50
2022-09-30T18:40:54.559Z,6.63
2022-09-30T18:43:29.863Z,6.03
2022-09-30T18:46:05.378Z,6.47
2022-09-30T18:48:41.056Z,6.07
2022-09-30T18:51:17.500Z,5.63
2022-09-30T18:53:58.068Z,6.70
2022-09-30T18:56:33.290Z,6.00
2022-09-30T19:01:49.336Z,6.60
2022-09-30T19:04:24.394Z,7.80
2022-09-30T19:06:59.315Z,6.50
2022-09-30T19:09:34.287Z,5.80
2022-09-30T19:12:09.166Z,5.63
2022-09-30T19:14:44.874Z,6.20
2022-09-30T19:17:20.049Z,5.23
2022-09-30T19:19:54.924Z,5.10
2022-09-30T19:22:30.370Z,5.97
2022-09-30T19:25:12.344Z,5.00
2022-09-30T19:27:49.468Z,5.73
2022-09-30T19:30:25.570Z,5.80
2022-09-30T19:33:01.300Z,9.90
2022-09-30T19:35:40.836Z,11.80
2022-09-30T19:38:17.868Z,9.07
2022-09-30T19:40:57.114Z,8.80
2022-09-30T19:43:33.180Z,7.17
2022-09-30T19:46:11.373Z,5.80
2022-09-30T19:48:46.897Z,6.50
2022-09-30T19:51:24.227Z,5.80
2022-09-30T19:54:05.980Z,6.37
2022-09-30T19:56:41.462Z,6.37
2022-09-30T19:59:17.114Z,6.30
2022-09-30T20:01:52.091Z,6.93
2022-09-30T20:04:27.383Z,7.30
2022-09-30T20:07:02.371Z,5.73
2022-09-30T20:09:37.391Z,6.60
2022-09-30T20:12:12.707Z,7.40
2022-09-30T20:15:05.976Z,5.67
2022-09-30T20:17:40.887Z,6.50
2022-09-30T20:20:34.184Z,7.47
2022-09-30T20:23:09.102Z,7.50
2022-09-30T20:25:44.065Z,8.07
2022-09-30T20:28:21.082Z,8.03
2022-09-30T20:30:56.015Z,7.87
2022-09-30T20:33:30.980Z,8.37
2022-09-30T20:36:09.169Z,8.17
2022-09-30T20:38:46.181Z,8.70
2022-09-30T20:41:21.088Z,8.80
2022-09-30T20:43:56.136Z,8.10
2022-09-30T20:46:31.993Z,8.20
2022-09-30T20:49:07.142Z,8.10
2022-09-30T20:51:42.693Z,7.53
2022-09-30T20:54:17.822Z,7.73
2022-09-30T20:57:08.342Z,7.67
2022-09-30T20:59:45.285Z,7.43
2022-09-30T21:02:25.935Z,7.50
2022-09-30T21:05:02.087Z,7.23
2022-09-30T21:07:37.527Z,7.90
2022-09-30T21:10:12.514Z,7.00
2022-09-30T21:12:48.479Z,6.90
2022-09-30T21:15:24.027Z,7.97
2022-09-30T21:17:59.304Z,7.17
2022-09-30T21:20:34.756Z,8.27
2022-09-30T21:23:09.722Z,7.70
2022-09-30T21:25:44.666Z,6.40
2022-09-30T21:28:22.268Z,7.23
2022-09-30T21:30:57.793Z,7.30
2022-09-30T21:33:32.679Z,7.50
2022-09-30T21:36:07.659Z,6.40
2022-09-30T21:38:42.667Z,6.67
2022-09-30T21:41:18.589Z,6.73
2022-09-30T21:43:53.501Z,6.03
2022-09-30T21:46:29.426Z,6.20
2022-09-30T21:49:17.492Z,6.37
2022-09-30T21:51:55.670Z,6.23
2022-09-30T21:54:30.595Z,6.30
2022-09-30T21:57:07.600Z,6.77
2022-09-30T21:59:46.346Z,6.10
2022-09-30T22:02:23.677Z,6.40
2022-09-30T22:04:58.620Z,6.20
2022-09-30T22:07:33.640Z,6.53
2022-09-30T22:10:09.134Z,6.13
2022-09-30T22:12:44.228Z,6.97
2022-09-30T22:15:19.193Z,7.50
2022-09-30T22:17:54.114Z,6.33
2022-09-30T22:20:30.395Z,6.57
2022-09-30T22:23:05.339Z,6.93
2022-09-30T22:25:40.386Z,6.43
2022-09-30T22:28:15.337Z,5.73
2022-09-30T22:30:50.280Z,6.67
2022-09-30T22:33:43.462Z,6.50
2022-09-30T22:36:37.017Z,6.00
2022-09-30T22:39:11.979Z,6.20
2022-09-30T22:41:47.655Z,5.80
2022-09-30T22:44:25.533Z,5.73
2022-09-30T22:47:01.128Z,6.20
2022-09-30T22:49:36.172Z,5.77
2022-09-30T22:52:11.179Z,6.40
2022-09-30T22:54:46.226Z,6.70
2022-09-30T22:57:21.112Z,5.80
2022-09-30T22:59:58.873Z,6.00
2022-09-30T23:02:34.230Z,6.13
2022-09-30T23:05:09.366Z,5.97
2022-09-30T23:07:44.306Z,5.37
2022-09-30T23:10:19.254Z,5.30
2022-09-30T23:12:54.162Z,6.30
2022-09-30T23:15:29.022Z,5.70
2022-09-30T23:18:03.963Z,5.97
2022-09-30T23:20:40.805Z,5.87
2022-09-30T23:23:15.755Z,6.00
2022-09-30T23:26:17.013Z,6.13
2022-09-30T23:28:56.999Z,6.30
2022-09-30T23:31:33.112Z,5.73
2022-09-30T23:34:08.873Z,6.60
2022-09-30T23:36:43.857Z,6.57
2022-09-30T23:39:19.542Z,6.17
2022-09-30T23:41:55.281Z,6.57
2022-09-30T23:44:30.995Z,7.13
2022-09-30T23:47:17.756Z,6.77
2022-09-30T23:49:52.799Z,6.83
2022-09-30T23:52:27.774Z,7.37
2022-09-30T23:55:02.743Z,7.30
2022-09-30T23:57:37.611Z,7.37
